^^
B2 Weather Station Historical Data
 
Daily Summary for December 14, 2019 Units:  English    Metric   Both
Daily Weekly Monthly Yearly Custom
  Current: High: Low: Average:
Temperature: 32.5 °F 34.4 °F 31.2 °F 32.6 °F
Dew Point: 30.4 °F 32 °F 28.3 °F 30 °F
Humidity: 92% 92% 88% 90%
Wind Speed: 12.7mph 12.7mph 0mph 2.9mph
Wind Gust: 7.9mph 7.9mph - -
WindNW - - WNW
Pressure: 29.74 in 29.78 in 29.72 in -
Precipitation: 0 in      
Historical Graphs
 
 
Tabular Data for December 14, 2019
Time Temperature Dew Point Pressure Wind Wind Speed Wind Gust Humidity Rainfall Rate (Hourly) solar
00:00 31.3 °F 28.4 °F 29.78 in Calm     89% 0 in 0.00 W/m2
00:05 31.6 °F 28.7 °F 29.78 in Calm     89% 0 in 0.00 W/m2
00:10 31.6 °F 28.7 °F 29.78 in Calm     89% 0 in 0.00 W/m2
00:15 31.7 °F 28.8 °F 29.78 in Calm     89% 0 in 0.00 W/m2
00:20 32 °F 29.1 °F 29.78 in Calm     89% 0 in 0.00 W/m2
00:25 32.2 °F 29.3 °F 29.78 in Calm     89% 0 in 0.00 W/m2
00:30 32.4 °F 29.5 °F 29.77 in Calm     89% 0 in 0.00 W/m2
00:35 32.4 °F 29.5 °F 29.77 in Calm     89% 0 in 0.00 W/m2
00:40 32.5 °F 29.6 °F 29.77 in Calm     89% 0 in 0.00 W/m2
00:45 32.7 °F 29.8 °F 29.77 in Calm     89% 0 in 0.00 W/m2
00:50 32.7 °F 29.8 °F 29.77 in Calm     89% 0 in 0.00 W/m2
00:55 32.8 °F 29.9 °F 29.77 in Calm     89% 0 in 0.00 W/m2
01:00 32.9 °F 30 °F 29.77 in Calm     89% 0 in 0.00 W/m2
01:05 32.9 °F 30 °F 29.76 in Calm     89% 0 in 0.00 W/m2
01:10 33 °F 30.1 °F 29.76 in Calm     89% 0 in 0.00 W/m2
01:15 33 °F 30.1 °F 29.75 in Calm     89% 0 in 0.00 W/m2
01:20 33 °F 30.1 °F 29.75 in Calm     89% 0 in 0.00 W/m2
01:25 33.1 °F 30.2 °F 29.75 in Calm     89% 0 in 0.00 W/m2
01:30 33 °F 30.1 °F 29.75 in Calm     89% 0 in 0.00 W/m2
01:35 32.7 °F 29.8 °F 29.75 in Calm     89% 0 in 0.00 W/m2
01:40 32.4 °F 29.5 °F 29.75 in Calm     89% 0 in 0.00 W/m2
01:45 32.3 °F 29.4 °F 29.75 in Calm     89% 0 in 0.00 W/m2
01:50 32.1 °F 29.2 °F 29.74 in Calm     89% 0 in 0.00 W/m2
01:55 31.9 °F 29 °F 29.74 in Calm     89% 0 in 0.00 W/m2
02:00 31.9 °F 29 °F 29.74 in Calm     89% 0 in 0.00 W/m2
02:05 32 °F 29.1 °F 29.74 in Calm     89% 0 in 0.00 W/m2
02:10 32.1 °F 29.2 °F 29.74 in Calm     89% 0 in 0.00 W/m2
02:15 32.1 °F 29.2 °F 29.74 in Calm     89% 0 in 0.00 W/m2
02:20 32 °F 29.1 °F 29.74 in Calm     89% 0 in 0.00 W/m2
02:25 31.9 °F 28.8 °F 29.74 in Calm     88% 0 in 0.00 W/m2
02:30 31.7 °F 28.6 °F 29.74 in Calm     88% 0 in 0.00 W/m2
02:35 31.6 °F 28.5 °F 29.74 in Calm     88% 0 in 0.00 W/m2
02:40 31.6 °F 28.7 °F 29.74 in Calm     89% 0 in 0.00 W/m2
02:45 31.5 °F 28.6 °F 29.74 in Calm     89% 0 in 0.00 W/m2
02:50 31.4 °F 28.5 °F 29.74 in Calm     89% 0 in 0.00 W/m2
02:55 31.2 °F 28.3 °F 29.74 in Calm     89% 0 in 0.00 W/m2
03:00 31.2 °F 28.3 °F 29.74 in Calm     89% 0 in 0.00 W/m2
03:05 31.2 °F 28.3 °F 29.74 in Calm     89% 0 in 0.00 W/m2
03:10 31.2 °F 28.3 °F 29.74 in Calm     89% 0 in 0.00 W/m2
03:15 31.3 °F 28.4 °F 29.74 in Calm     89% 0 in 0.00 W/m2
03:20 31.4 °F 28.5 °F 29.74 in Calm     89% 0 in 0.00 W/m2
03:25 31.6 °F 28.7 °F 29.74 in Calm     89% 0 in 0.00 W/m2
03:30 31.9 °F 29 °F 29.74 in Calm     89% 0 in 0.00 W/m2
03:35 32.1 °F 29.2 °F 29.74 in Calm     89% 0 in 0.00 W/m2
03:40 32.3 °F 29.4 °F 29.73 in Calm     89% 0 in 0.00 W/m2
03:45 32.4 °F 29.5 °F 29.73 in Calm     89% 0 in 0.00 W/m2
03:50 32.5 °F 29.6 °F 29.73 in Calm     89% 0 in 0.00 W/m2
03:55 32.5 °F 29.6 °F 29.73 in Calm     89% 0 in 0.00 W/m2
04:00 32.5 °F 29.6 °F 29.73 in Calm     89% 0 in 0.00 W/m2
04:05 32.7 °F 29.8 °F 29.73 in Calm     89% 0 in 0.00 W/m2
04:10 32.7 °F 29.8 °F 29.72 in Calm     89% 0 in 0.00 W/m2
04:15 32.6 °F 29.7 °F 29.72 in Calm     89% 0 in 0.00 W/m2
04:20 32.6 °F 29.7 °F 29.72 in Calm     89% 0 in 0.00 W/m2
04:25 32.4 °F 29.5 °F 29.73 in Calm     89% 0 in 0.00 W/m2
04:30 32.2 °F 29.3 °F 29.73 in Calm     89% 0 in 0.00 W/m2
04:35 32.3 °F 29.7 °F 29.73 in Calm     90% 0 in 0.00 W/m2
04:40 32.4 °F 29.8 °F 29.73 in Calm     90% 0 in 0.00 W/m2
04:45 32.5 °F 29.9 °F 29.73 in Calm     90% 0 in 0.00 W/m2
04:50 32.5 °F 29.9 °F 29.73 in Calm     90% 0 in 0.00 W/m2
04:55 32.6 °F 30 °F 29.73 in Calm     90% 0 in 0.00 W/m2
05:00 32.7 °F 30.1 °F 29.73 in Calm     90% 0 in 0.00 W/m2
05:05 32.7 °F 30.1 °F 29.72 in Calm     90% 0 in 0.00 W/m2
05:10 32.8 °F 29.9 °F 29.72 in Calm     89% 0 in 0.00 W/m2
05:15 32.8 °F 29.9 °F 29.72 in Calm     89% 0 in 0.00 W/m2
05:20 32.8 °F 29.9 °F 29.72 in Calm     89% 0 in 0.00 W/m2
05:25 33 °F 30.1 °F 29.72 in Calm     89% 0 in 0.00 W/m2
05:30 32.9 °F 30 °F 29.72 in Calm     89% 0 in 0.00 W/m2
05:35 33 °F 30.1 °F 29.72 in Calm     89% 0 in 0.00 W/m2
05:40 32.9 °F 30 °F 29.72 in Calm     89% 0 in 0.00 W/m2
05:45 32.8 °F 29.6 °F 29.72 in Calm     88% 0 in 0.00 W/m2
05:50 32.6 °F 29.7 °F 29.72 in Calm     89% 0 in 0.00 W/m2
05:55 32.5 °F 29.6 °F 29.73 in Calm     89% 0 in 0.00 W/m2
06:00 32.3 °F 29.4 °F 29.73 in Calm     89% 0 in 0.00 W/m2
06:05 32.1 °F 29.5 °F 29.73 in Calm     90% 0 in 0.00 W/m2
06:10 31.7 °F 29.1 °F 29.73 in Calm     90% 0 in 0.00 W/m2
06:15 31.6 °F 29 °F 29.73 in Calm     90% 0 in 0.00 W/m2
06:20 31.5 °F 29.2 °F 29.73 in South 1.2 mph 0.1 mph 91% 0 in 0.00 W/m2
06:25 31.4 °F 29.1 °F 29.73 in SSW 1.2 mph 0.1 mph 91% 0 in 0.00 W/m2
06:30 31.4 °F 29.3 °F 29.73 in Calm     92% 0 in 0.00 W/m2
06:35 31.4 °F 29.3 °F 29.73 in NW 3.5 mph 0.7 mph 92% 0 in 0.00 W/m2
06:40 31.6 °F 29.5 °F 29.73 in WNW 1.2 mph   92% 0 in 0.00 W/m2
06:45 31.8 °F 29.7 °F 29.73 in West 3.5 mph 1.2 mph 92% 0 in 0.00 W/m2
06:50 32 °F 29.9 °F 29.73 in WNW 3.5 mph 1.5 mph 92% 0 in 0.00 W/m2
06:55 32.1 °F 29.8 °F 29.72 in West 1.2 mph 0.1 mph 91% 0 in 0.00 W/m2
07:00 32 °F 29.7 °F 29.72 in NW 3 mph 0.4 mph 91% 0 in 0.00 W/m2
07:05 31.9 °F 29.6 °F 29.72 in WNW 3.5 mph 0.9 mph 91% 0 in 0.00 W/m2
07:10 31.7 °F 29.1 °F 29.72 in NNW 1.2 mph   90% 0 in 0.00 W/m2
07:15 31.6 °F 29.3 °F 29.72 in WNW 3.5 mph 1.1 mph 91% 0 in 5.00 W/m2
07:20 31.5 °F 29.2 °F 29.73 in NW 4 mph 1.1 mph 91% 0 in 7.00 W/m2
07:25 31.5 °F 29.2 °F 29.73 in WNW 4.6 mph 1.4 mph 91% 0 in 11.00 W/m2
07:30 31.5 °F 29.2 °F 29.73 in WNW 3.5 mph 1.1 mph 91% 0 in 12.00 W/m2
07:35 31.5 °F 29.2 °F 29.73 in WNW 3.5 mph 1.2 mph 91% 0 in 14.00 W/m2
07:40 31.6 °F 29.3 °F 29.73 in NW 3.5 mph 0.9 mph 91% 0 in 14.00 W/m2
07:45 31.9 °F 29.6 °F 29.73 in NW 2.3 mph 0.3 mph 91% 0 in 19.00 W/m2
07:50 32.1 °F 29.8 °F 29.74 in WNW 1.2 mph 0.1 mph 91% 0 in 23.00 W/m2
07:55 32.3 °F 30 °F 29.74 in NW 3.5 mph 1.1 mph 91% 0 in 37.00 W/m2
08:00 32.5 °F 30.4 °F 29.73 in NW 3.5 mph 1.2 mph 92% 0 in 49.00 W/m2
08:05 32.6 °F 30.3 °F 29.73 in NW 2.3 mph 0.7 mph 91% 0 in 51.00 W/m2
08:10 32.7 °F 30.4 °F 29.73 in WNW 2.3 mph 0.5 mph 91% 0 in 51.00 W/m2
08:15 32.7 °F 30.4 °F 29.73 in WNW 5 mph 1.8 mph 91% 0 in 51.00 W/m2
08:20 32.7 °F 30.4 °F 29.73 in WNW 2 mph 0.2 mph 91% 0 in 63.00 W/m2
08:25 32.7 °F 30.4 °F 29.73 in NW 1.2 mph 0.1 mph 91% 0 in 77.00 W/m2
08:30 32.8 °F 30.5 °F 29.73 in Calm     91% 0 in 128.00 W/m2
08:35 33.1 °F 31 °F 29.73 in NW 2.3 mph 0.5 mph 92% 0 in 163.00 W/m2
08:40 33.5 °F 31.4 °F 29.73 in NW 3.5 mph 3.6 mph 92% 0 in 193.00 W/m2
08:45 33.9 °F 31.8 °F 29.73 in WNW 3.5 mph 1.2 mph 92% 0 in 109.00 W/m2
08:50 34.1 °F 32 °F 29.73 in West 6 mph 3.6 mph 92% 0 in 118.00 W/m2
08:55 34 °F 31.6 °F 29.73 in WNW 4.6 mph 1.6 mph 91% 0 in 107.00 W/m2
09:00 34 °F 31.6 °F 29.73 in West 4.6 mph 2.8 mph 91% 0 in 104.00 W/m2
09:05 34.1 °F 31.7 °F 29.73 in WNW 3.5 mph 1.3 mph 91% 0 in 95.00 W/m2
09:10 34.3 °F 31.9 °F 29.74 in WSW 3.5 mph 0.5 mph 91% 0 in 98.00 W/m2
09:15 34.4 °F 32 °F 29.74 in WNW 3.5 mph 1.3 mph 91% 0 in 86.00 W/m2
09:20 34.4 °F 32 °F 29.74 in WNW 6 mph 2.5 mph 91% 0 in 76.00 W/m2
09:25 34.2 °F 31.8 °F 29.75 in WNW 3.5 mph 1.3 mph 91% 0 in 62.00 W/m2
09:30 34 °F 31.4 °F 29.75 in NW 3.5 mph 1.9 mph 90% 0 in 53.00 W/m2
09:35 33.9 °F 31.3 °F 29.75 in Calm     90% 0 in 51.00 W/m2
09:40 33.8 °F 31.5 °F 29.75 in North 5.8 mph 3.4 mph 91% 0 in 70.00 W/m2
09:45 33.6 °F 31 °F 29.74 in WNW 4.6 mph 1.9 mph 90% 0 in 84.00 W/m2
09:50 33.5 °F 30.9 °F 29.74 in WNW 3.5 mph 1.6 mph 90% 0 in 77.00 W/m2
09:55 33.4 °F 30.8 °F 29.74 in WNW 8.1 mph 3.6 mph 90% 0 in 95.00 W/m2
10:00 33.4 °F 30.8 °F 29.74 in West 8.1 mph 3.1 mph 90% 0 in 91.00 W/m2
10:05 33.3 °F 30.7 °F 29.74 in West 3.5 mph 1.4 mph 90% 0 in 95.00 W/m2
10:10 33.4 °F 31.1 °F 29.74 in WNW 5.8 mph 3.7 mph 91% 0 in 84.00 W/m2
10:15 33.4 °F 31.1 °F 29.74 in WNW 6.9 mph 4.4 mph 91% 0 in 83.00 W/m2
10:20 33.3 °F 30.7 °F 29.74 in WNW 4.6 mph 2.9 mph 90% 0 in 84.00 W/m2
10:25 33.3 °F 30.7 °F 29.74 in NW 8.1 mph 3.6 mph 90% 0 in 77.00 W/m2
10:30 33.3 °F 30.7 °F 29.74 in West 8 mph 4 mph 90% 0 in 95.00 W/m2
10:35 33.4 °F 30.8 °F 29.74 in WNW 8.1 mph 3.9 mph 90% 0 in 79.00 W/m2
10:40 33.3 °F 30.7 °F 29.74 in West 6.9 mph 4.1 mph 90% 0 in 79.00 W/m2
10:45 33.4 °F 30.8 °F 29.74 in West 6.9 mph 3.1 mph 90% 0 in 77.00 W/m2
10:50 33.5 °F 30.9 °F 29.75 in West 5 mph 1.6 mph 90% 0 in 72.00 W/m2
10:55 33.5 °F 30.9 °F 29.75 in WNW 4.6 mph 2.3 mph 90% 0 in 67.00 W/m2
11:00 33.6 °F 31 °F 29.75 in West 5.8 mph 1.9 mph 90% 0 in 70.00 W/m2
11:05 33.6 °F 31 °F 29.75 in WNW 10.4 mph 6.3 mph 90% 0 in 69.00 W/m2
11:10 33.6 °F 31 °F 29.75 in NW 4.6 mph 2.7 mph 90% 0 in 70.00 W/m2
11:15 33.7 °F 31.1 °F 29.74 in NW 4 mph 1.9 mph 90% 0 in 76.00 W/m2
11:20 33.6 °F 31 °F 29.74 in WNW 11.5 mph 7.6 mph 90% 0 in 65.00 W/m2
11:25 33.5 °F 30.9 °F 29.74 in NW 9.2 mph 3.6 mph 90% 0 in 62.00 W/m2
11:30 33.5 °F 30.9 °F 29.74 in WNW 6.9 mph 3.6 mph 90% 0 in 72.00 W/m2
11:35 33.5 °F 30.9 °F 29.74 in West 10.4 mph 5.2 mph 90% 0 in 79.00 W/m2
11:40 33.5 °F 30.9 °F 29.74 in WNW 9.2 mph 6.1 mph 90% 0 in 70.00 W/m2
11:45 33.5 °F 30.9 °F 29.73 in NNW 10.4 mph 3.8 mph 90% 0 in 62.00 W/m2
11:50 33.4 °F 30.8 °F 29.73 in North 9.2 mph 2.9 mph 90% 0 in 70.00 W/m2
11:55 33.5 °F 30.9 °F 29.73 in WNW 5.8 mph 3 mph 90% 0 in 77.00 W/m2
12:00 33.6 °F 31 °F 29.73 in West 6.9 mph 3.9 mph 90% 0 in 63.00 W/m2
12:05 33.5 °F 30.9 °F 29.73 in WNW 11.5 mph 3.9 mph 90% 0 in 56.00 W/m2
12:10 33.5 °F 30.9 °F 29.73 in WNW 10.4 mph 3.6 mph 90% 0 in 63.00 W/m2
12:15 33.4 °F 30.8 °F 29.73 in West 11.5 mph 5.7 mph 90% 0 in 60.00 W/m2
12:20 33.3 °F 30.7 °F 29.73 in North 9 mph 4.2 mph 90% 0 in 67.00 W/m2
12:25 33.3 °F 30.7 °F 29.73 in West 10.4 mph 7.1 mph 90% 0 in 62.00 W/m2
12:30 33.2 °F 30.6 °F 29.74 in North 9.2 mph 3.5 mph 90% 0 in 51.00 W/m2
12:35 33.2 °F 30.6 °F 29.74 in North 11 mph 5.5 mph 90% 0 in 49.00 W/m2
12:40 33 °F 30.4 °F 29.74 in WNW 4.6 mph 3.5 mph 90% 0 in 49.00 W/m2
12:45 32.9 °F 30.3 °F 29.73 in WNW 6 mph 6 mph 90% 0 in 58.00 W/m2
12:50 32.9 °F 30.6 °F 29.74 in WSW 8.1 mph 4.4 mph 91% 0 in 47.00 W/m2
12:55 32.9 °F 30.6 °F 29.74 in West 11.5 mph 6.1 mph 91% 0 in 47.00 W/m2
13:00 32.8 °F 30.5 °F 29.74 in WNW 8 mph 5.7 mph 91% 0 in 46.00 W/m2
13:05 32.6 °F 30.3 °F 29.74 in SW 8.1 mph 3.6 mph 91% 0 in 70.00 W/m2
13:10 32.6 °F 30.3 °F 29.74 in North 11.5 mph 7 mph 91% 0 in 69.00 W/m2
13:15 32.5 °F 30.4 °F 29.74 in NW 12.7 mph 7.9 mph 92% 0 in 56.00 W/m2
Bourbonnais, Illinois, USA
Compliments of Weather Underground - 2 mb